Huvudsida
METAR-TAF:

METAR-TAF

Flygplatser :

Malés internationella flygplats

Malé, Maldiverna

latitud: 04-12N, longitud: 073-32E, höjd: 2 m

Aktuellt väderrapport

Denna rapport gjordes för 1 timme och 24 minuter sedan, klockan 09:00 UTC
Vind 9 kt från väst
Temperatur 31°C
Fuktighet 66%
Tryck 1009 hPa
Sikt 10 km eller mer
Få moln på en höjd av 1800 ft, Högtornande cumulus.

METAR: VRMM 160900Z 27009KT 9999 FEW018TCU 31/24 Q1009 NOSIG

Tid: 15:24 (10:24 UTC)

Väderprognos

Denna rapport gjordes för 5 timmar och 24 minuter sedan, klockan 05:00 UTC
Prognos gäller från 16 kl. 06 UTC till 17 kl. 12 UTC
Vind 7 kt från väst
Sikt 10 km eller mer
Få moln på en höjd av 1900 ft
Temporärt
från 16 kl. 07 UTC till 16 kl. 13 UTC
Få moln på en höjd av 1900 ft, Cumulonimbus.

TAF: VRMM 160500Z 1606/1712 27007KT 9999 FEW019 TEMPO 1607/1613 FEW019CB

Aktuella väderrapporter och prognoser från 4000 flygplatser (METAR- och TAF-rapporter).

De tillgängliga stationerna syns som gula och röda prickar på kartan.

För musen över prickarna för att se namnen på stationerna.

Klicka sedan för att få väderrapporter och prognoser.

För att ändra kartan: Klicka på de gröna knapparna med ett svart kors på för att zooma in; den gröna knappen med ett streck på för att zooma ut; eller på de gröna pilarna för angränsande kartor.


METAR-TAF: